Here is the Quick Look data you requested

The Data originates at the National Weather Service, and is made available here by the UAlbany Department of Atmospheric and Environmental Sciences

Surface Observations

KNAK 220554Z AUTO 28004KT 10SM 29/21 A2988 RMK AO2 SLP119 T02890206 10356 20289
 $=
KILG 220551Z AUTO 36004KT 10SM SCT070 27/23 A2988 RMK AO2 SLP118 60007
 T02670228 10322 20250 53005 $=
KDCA 220552Z 01003KT 10SM BKN150 OVC250 26/21 A2989 RMK AO2 SLP121 60000
 T02610206 10328 20261 58001=
KIAD 220552Z 12003KT 10SM BKN140 BKN250 23/20 A2989 RMK AO2 SLP119 60000
 T02280200 10267 20222 58004=
KDAA 220556Z AUTO 00000KT 10SM CLR 23/21 A2989 RMK AO2 SLP124 T02330210 10314
 20232 50001 $=
KEZF 220555Z AUTO 14004KT 10SM CLR 24/23 A2989 RMK AO2 T02400228 10302 20238
 403840238=
KHEF 220556Z AUTO 00000KT 10SM CLR 23/22 A2990 RMK AO2 SLP132 6//// T02280217
 10272 20228 50001 PNO $=
KJYO 220555Z AUTO 25003KT 10SM CLR 22/21 A2991 RMK AO2=
KRIC 220554Z 18004KT 10SM CLR 24/22 A2991 RMK AO2 SLP131 T02390217 10300 20233
 58001=
KOKV 220555Z AUTO 21004KT 10SM CLR 22/19 A2994 RMK AO2=
KMRB 220553Z AUTO 22003KT 10SM CLR 22/21 A2989 RMK AO2 SLP116 60010 T02220206
 10244 20222 58002=
KCHO 220553Z AUTO 18004KT 10SM CLR 25/19 A2991 RMK AO2 SLP119 T02500194 10278
 20250 58003=
KNYG 220556Z AUTO 30003KT 10SM CLR 27/22 A2990 RMK AO2 SLP125 T02670217 10322
 20239 50000 $=
KWAL 220554Z AUTO 26005KT 10SM CLR 29/23 A2990 RMK AO2 SLP120 T02890228 10311
 20289 53001=
KCXY 220556Z AUTO 31004KT 10SM CLR 26/20 A2989 RMK AO2 SLP118 60001 T02560200
 10333 20250 55006=
KADW 220556Z AUTO 00000KT 10SM CLR 26/20 A2989 RMK AO2 SLP125 T02620200 10331
 20254 55001 $=
KBWI 220554Z 20004KT 10SM FEW085 BKN200 OVC250 27/21 A2988 RMK AO2 SLP116
 T02670211 10344 20261 56004=
KDMH 220554Z AUTO 27/21 A2988 RMK AO1 SLP118 T02670211 10356 20267 55000=
KFME 220603Z AUTO 00000KT 10SM CLR 22/21 A2991 RMK AO1=
KHGR 220553Z AUTO 18004KT 10SM CLR 23/23 A2991 RMK AO2 SLP132 60081 T02280228
 10306 20228 53003=
KMTN 220603Z AUTO 18003KT 10SM SCT090 27/22 A2989 RMK AO2=
KNHK 220552Z AUTO 25006KT 10SM CLR 26/22 A2989 RMK AO2 SLP122 T02610222 10328
 20250 53004 $=
KOXB 220553Z AUTO 25006KT 10SM CLR 28/24 A2988 RMK AO2 SLP118 T02830239 10328
 20283 53002=
KSBY 220554Z AUTO 23005KT 10SM CLR 27/24 A2989 RMK AO2 SLP121 T02720239 10317
 20272 53003=